createdAt,value
2018-05-27T00:02:00.379Z,6.33
2018-05-27T00:07:04.231Z,6.17
2018-05-27T00:12:07.312Z,5.70
2018-05-27T00:17:10.396Z,6.27
2018-05-27T00:22:14.245Z,6.37
2018-05-27T00:27:17.729Z,6.23
2018-05-27T00:32:23.280Z,5.93
2018-05-27T00:37:26.376Z,5.70
2018-05-27T00:42:29.857Z,5.95
2018-05-27T00:47:34.292Z,5.90
2018-05-27T00:52:38.517Z,6.25
2018-05-27T00:57:42.960Z,5.95
2018-05-27T01:02:46.049Z,6.23
2018-05-27T01:07:49.133Z,6.23
2018-05-27T01:12:53.569Z,6.20
2018-05-27T01:17:56.661Z,6.40
2018-05-27T01:23:00.513Z,6.97
2018-05-27T01:28:04.365Z,6.53
2018-05-27T01:33:07.446Z,6.43
2018-05-27T01:43:20.084Z,6.60
2018-05-27T01:48:23.938Z,6.77
2018-05-27T01:53:27.024Z,6.20
2018-05-27T01:58:31.463Z,6.93
2018-05-27T02:03:34.944Z,6.32
2018-05-27T02:08:39.175Z,6.63
2018-05-27T02:13:43.017Z,6.37
2018-05-27T02:18:47.455Z,6.97
2018-05-27T02:23:50.944Z,6.70
2018-05-27T02:28:54.032Z,7.23
2018-05-27T02:33:57.121Z,7.00
2018-05-27T02:39:01.715Z,6.43
2018-05-27T02:44:06.153Z,6.60
2018-05-27T02:49:10.582Z,6.27
2018-05-27T02:54:13.679Z,6.77
2018-05-27T02:59:16.758Z,7.47
2018-05-27T03:04:20.610Z,7.30
2018-05-27T03:09:24.471Z,7.20
2018-05-27T03:14:28.906Z,7.77
2018-05-27T03:19:32.394Z,7.00
2018-05-27T03:24:36.237Z,7.07
2018-05-27T03:29:40.467Z,7.63
2018-05-27T03:34:43.553Z,7.50
2018-05-27T03:39:47.408Z,7.80
2018-05-27T03:44:50.497Z,7.60
2018-05-27T03:49:53.590Z,7.00
2018-05-27T03:54:57.437Z,7.57
2018-05-27T04:00:00.922Z,7.10
2018-05-27T04:05:22.828Z,7.70
2018-05-27T04:10:27.268Z,7.00
2018-05-27T04:15:31.716Z,7.77
2018-05-27T04:20:35.562Z,7.87
2018-05-27T04:25:40.900Z,8.20
2018-05-27T04:30:44.389Z,7.83
2018-05-27T04:35:47.471Z,7.57
2018-05-27T04:40:50.550Z,8.17
2018-05-27T04:45:54.981Z,8.03
2018-05-27T04:50:58.833Z,7.90
2018-05-27T04:56:01.930Z,7.87
2018-05-27T05:01:05.017Z,8.27
2018-05-27T05:06:09.448Z,8.27
2018-05-27T05:11:14.058Z,8.03
2018-05-27T05:16:17.150Z,7.93
2018-05-27T05:21:21.377Z,7.63
2018-05-27T05:26:24.463Z,7.80
2018-05-27T05:31:28.897Z,7.60
2018-05-27T05:36:32.379Z,7.97
2018-05-27T05:41:36.979Z,7.87
2018-05-27T05:46:40.457Z,7.63
2018-05-27T05:51:44.313Z,7.77
2018-05-27T05:56:48.168Z,7.63
2018-05-27T06:01:52.598Z,7.30
2018-05-27T06:06:55.686Z,6.80
2018-05-27T06:11:59.174Z,6.60
2018-05-27T06:17:03.630Z,6.93
2018-05-27T06:22:07.126Z,7.22
2018-05-27T06:27:10.977Z,6.70
2018-05-27T06:32:15.210Z,7.53
2018-05-27T06:37:19.062Z,7.07
2018-05-27T06:42:22.157Z,7.57
2018-05-27T06:47:25.663Z,7.40
2018-05-27T06:52:28.767Z,7.00
2018-05-27T06:57:32.274Z,8.07
2018-05-27T07:02:35.373Z,7.50
2018-05-27T07:07:39.817Z,7.87
2018-05-27T07:12:43.318Z,7.90
2018-05-27T07:17:47.557Z,7.53
2018-05-27T07:22:51.427Z,7.07
2018-05-27T07:27:54.509Z,7.23
2018-05-27T07:32:58.368Z,7.43
2018-05-27T07:38:01.453Z,6.90
2018-05-27T07:43:05.910Z,6.47
2018-05-27T07:48:09.761Z,6.43
2018-05-27T07:53:12.856Z,6.20
2018-05-27T07:58:17.331Z,5.73
2018-05-27T08:03:20.392Z,6.10
2018-05-27T08:08:24.836Z,5.57
2018-05-27T08:13:27.978Z,5.40
2018-05-27T08:18:31.235Z,5.60
2018-05-27T08:23:35.830Z,5.17
2018-05-27T08:28:40.090Z,4.95
2018-05-27T08:33:44.678Z,5.30
2018-05-27T08:38:47.769Z,4.93
2018-05-27T08:43:50.902Z,4.75
2018-05-27T08:48:55.379Z,5.20
2018-05-27T08:53:58.843Z,5.70
2018-05-27T08:59:03.275Z,5.12
2018-05-27T09:04:06.372Z,5.00
2018-05-27T09:09:09.469Z,4.95
2018-05-27T09:14:13.697Z,4.85
2018-05-27T09:19:16.791Z,4.30
2018-05-27T09:24:20.275Z,4.50
2018-05-27T09:29:24.137Z,4.60
2018-05-27T09:34:27.986Z,4.07
2018-05-27T09:39:31.833Z,3.97
2018-05-27T09:44:34.926Z,4.12
2018-05-27T09:49:38.014Z,3.67
2018-05-27T09:54:41.858Z,3.80
2018-05-27T09:59:44.950Z,3.87
2018-05-27T10:04:48.789Z,3.97
2018-05-27T10:09:51.877Z,4.30
2018-05-27T10:14:55.367Z,3.90
2018-05-27T10:19:59.345Z,4.03
2018-05-27T10:25:02.434Z,4.00
2018-05-27T10:30:05.514Z,4.37
2018-05-27T10:35:09.749Z,4.35
2018-05-27T10:40:12.879Z,4.40
2018-05-27T10:45:15.963Z,4.68
2018-05-27T10:50:22.937Z,4.55
2018-05-27T10:55:26.026Z,4.80
2018-05-27T11:00:30.245Z,4.80
2018-05-27T11:05:33.329Z,4.87
2018-05-27T11:10:38.872Z,4.20
2018-05-27T11:15:43.070Z,4.33
2018-05-27T11:20:47.685Z,4.30
2018-05-27T11:25:51.152Z,4.20
2018-05-27T11:30:55.371Z,3.90
2018-05-27T11:35:58.494Z,4.27
2018-05-27T11:41:02.337Z,4.63
2018-05-27T11:46:05.414Z,6.90
2018-05-27T11:51:08.506Z,7.23
2018-05-27T11:56:12.374Z,6.47
2018-05-27T12:01:15.450Z,5.70
2018-05-27T12:06:18.927Z,4.83
2018-05-27T12:11:22.414Z,5.00
2018-05-27T12:16:26.836Z,5.23
2018-05-27T12:21:30.314Z,4.43
2018-05-27T12:26:33.399Z,5.03
2018-05-27T12:31:37.828Z,5.10
2018-05-27T12:36:42.413Z,5.10
2018-05-27T12:41:47.006Z,5.00
2018-05-27T12:46:50.494Z,5.17
2018-05-27T12:51:55.093Z,5.57
2018-05-27T12:56:59.556Z,5.40
2018-05-27T13:02:02.995Z,5.83
2018-05-27T13:07:06.488Z,6.40
2018-05-27T13:12:09.568Z,5.83
2018-05-27T13:17:13.813Z,6.10
2018-05-27T13:22:18.401Z,6.20
2018-05-27T13:27:21.884Z,5.75
2018-05-27T13:32:24.973Z,5.60
2018-05-27T13:37:28.904Z,5.13
2018-05-27T13:42:32.787Z,6.07
2018-05-27T13:47:35.874Z,4.93
2018-05-27T13:52:38.974Z,4.85
2018-05-27T13:57:43.397Z,5.15
2018-05-27T14:02:47.825Z,5.80
2018-05-27T14:07:52.257Z,5.30
2018-05-27T14:12:56.103Z,5.40
2018-05-27T14:18:00.698Z,5.60
2018-05-27T14:23:05.331Z,5.10
2018-05-27T14:28:09.545Z,5.20
2018-05-27T14:33:13.995Z,4.50
2018-05-27T14:38:17.829Z,4.40
2018-05-27T14:43:22.047Z,3.97
2018-05-27T14:48:25.130Z,4.20
2018-05-27T14:53:29.726Z,4.57
2018-05-27T14:58:34.149Z,3.90
2018-05-27T15:03:37.255Z,4.50
2018-05-27T15:08:41.688Z,4.20
2018-05-27T15:13:45.164Z,4.73
2018-05-27T15:18:49.760Z,4.67
2018-05-27T15:23:53.242Z,4.87
2018-05-27T15:28:57.831Z,4.67
2018-05-27T15:34:02.263Z,4.30
2018-05-27T15:39:06.063Z,4.20
2018-05-27T15:44:10.281Z,4.30
2018-05-27T15:49:14.710Z,3.90
2018-05-27T15:54:17.797Z,3.90
2018-05-27T15:59:21.636Z,4.43
2018-05-27T16:04:24.727Z,4.40
2018-05-27T16:09:27.813Z,4.90
2018-05-27T16:14:30.890Z,5.10
2018-05-27T16:19:35.101Z,4.67
2018-05-27T16:24:38.193Z,5.20
2018-05-27T16:29:41.268Z,5.03
2018-05-27T16:34:45.490Z,5.53
2018-05-27T16:39:48.852Z,5.90
2018-05-27T16:44:53.289Z,6.37
2018-05-27T16:49:56.780Z,6.80
2018-05-27T16:55:00.994Z,6.40
2018-05-27T17:00:05.048Z,6.12
2018-05-27T17:05:09.269Z,7.05
2018-05-27T17:10:13.485Z,6.83
2018-05-27T17:15:17.929Z,6.53
2018-05-27T17:20:21.015Z,6.37
2018-05-27T17:25:24.884Z,6.80
2018-05-27T17:30:29.334Z,6.53
2018-05-27T17:35:33.191Z,6.43
2018-05-27T17:40:36.683Z,6.50
2018-05-27T17:45:39.787Z,7.27
2018-05-27T17:50:44.018Z,6.50
2018-05-27T17:55:48.284Z,6.97
2018-05-27T18:00:51.371Z,7.53
2018-05-27T18:05:55.804Z,7.27
2018-05-27T18:10:59.650Z,7.63
2018-05-27T18:16:04.247Z,7.27
2018-05-27T18:21:09.430Z,7.23
2018-05-27T18:26:12.908Z,7.00
2018-05-27T18:31:15.994Z,6.20
2018-05-27T18:36:19.849Z,6.13
2018-05-27T18:41:24.088Z,6.70
2018-05-27T18:46:28.521Z,7.03
2018-05-27T18:51:32.034Z,6.43
2018-05-27T18:56:36.465Z,6.33
2018-05-27T19:01:41.066Z,6.37
2018-05-27T19:06:45.502Z,6.57
2018-05-27T19:11:48.997Z,7.17
2018-05-27T19:16:53.437Z,7.00
2018-05-27T19:21:56.918Z,7.77
2018-05-27T19:27:01.516Z,8.00
2018-05-27T19:32:06.157Z,7.93
2018-05-27T19:37:11.153Z,8.13
2018-05-27T19:42:14.311Z,7.47
2018-05-27T19:47:17.370Z,7.00
2018-05-27T19:52:20.490Z,7.87
2018-05-27T19:57:26.065Z,8.40
2018-05-27T20:02:30.508Z,7.20
2018-05-27T20:07:34.373Z,7.10
2018-05-27T20:12:38.226Z,6.37
2018-05-27T20:17:42.833Z,7.50
2018-05-27T20:22:46.333Z,7.30
2018-05-27T20:27:50.954Z,7.77
2018-05-27T20:32:54.441Z,8.17
2018-05-27T20:37:58.305Z,7.77
2018-05-27T20:43:02.789Z,7.60
2018-05-27T20:48:07.380Z,8.60
2018-05-27T20:53:10.473Z,8.40
2018-05-27T20:58:13.566Z,7.00
2018-05-27T21:03:16.657Z,6.60
2018-05-27T21:08:20.529Z,7.00
2018-05-27T21:13:25.018Z,6.03
2018-05-27T21:18:28.874Z,6.67
2018-05-27T21:23:31.975Z,6.97
2018-05-27T21:28:36.202Z,5.43
2018-05-27T21:33:39.774Z,5.10
2018-05-27T21:38:44.194Z,4.90
2018-05-27T21:43:48.410Z,5.23
2018-05-27T21:48:53.018Z,4.90
2018-05-27T21:53:56.094Z,4.70
2018-05-27T21:59:00.682Z,4.53
2018-05-27T22:04:05.322Z,4.80
2018-05-27T22:09:09.154Z,5.13
2018-05-27T22:14:12.243Z,4.97
2018-05-27T22:19:15.330Z,5.53
2018-05-27T22:24:19.757Z,5.10
2018-05-27T22:29:22.842Z,5.30
2018-05-27T22:34:25.921Z,5.10
2018-05-27T22:39:29.023Z,5.60
2018-05-27T22:44:32.497Z,5.63
2018-05-27T22:49:36.926Z,5.80
2018-05-27T22:54:40.777Z,5.67
2018-05-27T22:59:45.209Z,5.33
2018-05-27T23:04:49.423Z,4.77
2018-05-27T23:09:53.640Z,4.97
2018-05-27T23:14:58.665Z,4.70
2018-05-27T23:20:02.885Z,4.43
2018-05-27T23:25:05.965Z,5.00
2018-05-27T23:30:09.058Z,4.87
2018-05-27T23:35:12.896Z,4.90
2018-05-27T23:40:15.973Z,5.00
2018-05-27T23:45:19.455Z,5.17
2018-05-27T23:50:22.538Z,5.23
2018-05-27T23:55:26.017Z,5.03
